Terminal Aerodrome Forecast
Issued by NWS Sioux Falls, SD

Home | Current Version | Previous Version | Graphics & Text | Print | Product List | Glossary On
Versions: 1 2 3 4 5 6 7 8 9 10 11 12 13 14 15 16 17 18 19 20 21 22 23
000
FTUS43 KFSD 261100
TAFSUX
TAF
KSUX 261131Z 2612/2712 VRB03KT P6SM BKN150
      TEMPO 2612/2613 4SM BR
     FM261600 12006KT P6SM VCSH SCT090 BKN130
     FM261900 03005KT P6SM SCT090
     FM270200 31007KT P6SM SKC=

USA.gov is the U.S. government's official web portal to all federal, state and local government web resources and services.